As Sib, Oman
Current Conditions -  °F | °C
As of 12:50 PM on Friday 31 Oct 2014 (Local Time) from OOMS Reporting Station
Few Clouds Few Clouds  
Wind Chill: 30°   Ceiling: Unl
Heat Index: 33°   Visibility: 5mi
Dew Point: 22°   Wind: 17mph
Humidity: 62%   Direction: 40°NE
Pressure: 29.88"   Gusts: NA
Location:  23.67°N, 58.19°E
Report Text: OOMS 310850Z 04015KT 8000 FEW025 30/22 Q1012 NOSIG
Loading
Personal Weather Stations






























Interactive Weather Map
Tropical Storm Tracking
New forecast layout! Learn more

10-Day Weather Forecast

Advertisements
Track Severe Weather on mobile